Time;durP1;ratioP1;P1;durP2;ratioP2;P2;SDS_P1;SDS_P2;PMS_P1;PMS_P2;Temp;Humidity;BMP_temperature;BMP_pressure;BME280_temperature;BME280_humidity;BME280_pressure;Samples;Min_cycle;Max_cycle;Signal;HPM_P1;HPM_P2
2023/05/06 21:59:49;;;;;;;5.05;4.63;;;20.30;98.00;;;;;;6141156;23;20370;-79
2023/05/06 22:02:15;;;;;;;4.88;4.47;;;20.30;99.60;;;;;;6120338;23;20375;-78
2023/05/06 22:04:42;;;;;;;4.03;3.72;;;20.20;99.90;;;;;;6096989;23;20404;-78
2023/05/06 22:07:09;;;;;;;4.13;3.55;;;20.20;99.40;;;;;;6097718;23;20372;-78
2023/05/06 22:09:36;;;;;;;5.40;4.90;;;20.10;98.70;;;;;;6095817;23;20414;-78
2023/05/06 22:12:05;;;;;;;4.43;4.03;;;20.10;99.50;;;;;;6096959;23;20388;-79
2023/05/06 22:14:32;;;;;;;3.95;3.60;;;20.10;99.20;;;;;;6095340;23;20376;-79
2023/05/06 22:17:09;;;;;;;3.90;3.27;;;20.10;99.00;;;;;;6099088;23;20683;-78
2023/05/06 22:19:37;;;;;;;3.53;3.22;;;20.10;99.60;;;;;;6095990;23;20377;-78
2023/05/06 22:22:04;;;;;;;4.88;3.90;;;20.00;98.90;;;;;;6121358;23;20447;-78
2023/05/06 22:24:31;;;;;;;5.07;4.57;;;20.00;99.90;;;;;;6120292;23;20376;-78
2023/05/06 22:26:58;;;;;;;4.97;4.20;;;20.00;99.90;;;;;;6096849;23;20376;-78
2023/05/06 22:29:25;;;;;;;5.22;4.82;;;19.90;99.90;;;;;;6095357;23;20695;-77
2023/05/06 22:31:52;;;;;;;7.18;4.80;;;19.80;99.90;;;;;;6122055;23;20372;-78
2023/05/06 22:34:19;;;;;;;5.00;4.55;;;19.70;99.90;;;;;;6094885;23;20391;-78
2023/05/06 22:36:46;;;;;;;4.90;4.50;;;19.70;99.90;;;;;;6096915;23;20373;-78
2023/05/06 22:39:13;;;;;;;4.00;3.70;;;19.60;99.80;;;;;;6096829;23;20367;-78
2023/05/06 22:41:40;;;;;;;4.50;4.10;;;19.60;99.80;;;;;;6095534;23;20364;-78
2023/05/06 22:44:07;;;;;;;4.03;3.73;;;19.50;99.80;;;;;;6121694;23;20456;-78
2023/05/06 22:46:34;;;;;;;3.20;3.00;;;19.50;99.50;;;;;;6121184;23;20383;-78
2023/05/06 22:49:03;;;;;;;3.40;3.03;;;19.50;99.20;;;;;;6096849;23;20451;-78
2023/05/06 22:51:32;;;;;;;2.75;2.55;;;19.40;99.90;;;;;;6095650;23;20451;-78
2023/05/06 22:53:58;;;;;;;2.58;2.38;;;19.40;99.90;;;;;;6096359;23;20433;-79
2023/05/06 22:56:25;;;;;;;3.55;3.10;;;19.40;99.90;;;;;;6095878;23;20709;-78
2023/05/06 22:58:52;;;;;;;2.90;2.70;;;19.40;99.90;;;;;;6091589;23;20494;-78
2023/05/06 23:01:19;;;;;;;2.75;2.55;;;19.40;99.90;;;;;;6116320;23;20401;-79
2023/05/06 23:03:46;;;;;;;3.10;2.90;;;19.30;99.90;;;;;;6090951;23;20370;-79
2023/05/06 23:06:13;;;;;;;3.27;2.50;;;19.30;99.90;;;;;;6092614;23;20385;-78
2023/05/06 23:08:40;;;;;;;2.63;2.42;;;19.30;99.90;;;;;;6091102;23;20389;-78
2023/05/06 23:11:07;;;;;;;2.30;1.95;;;19.30;99.90;;;;;;6091742;23;20404;-78
2023/05/06 23:13:35;;;;;;;3.17;2.88;;;19.30;99.90;;;;;;6092320;23;20447;-78
2023/05/06 23:16:02;;;;;;;4.65;3.20;;;19.30;99.90;;;;;;6091702;23;20429;-78
2023/05/06 23:18:29;;;;;;;3.80;3.50;;;19.30;99.90;;;;;;6090752;23;20424;-79
2023/05/06 23:20:56;;;;;;;3.40;3.15;;;19.20;99.90;;;;;;6092403;23;20401;-78
2023/05/06 23:23:23;;;;;;;3.03;2.83;;;19.20;99.90;;;;;;6090795;23;20409;-78
2023/05/06 23:25:52;;;;;;;3.80;3.20;;;19.20;99.90;;;;;;6092063;23;20429;-79
2023/05/06 23:28:19;;;;;;;4.82;4.22;;;19.20;99.90;;;;;;6091684;23;20385;-79
2023/05/06 23:30:46;;;;;;;6.03;5.45;;;19.10;99.90;;;;;;6091235;23;20365;-78
2023/05/06 23:33:13;;;;;;;4.63;4.20;;;19.10;99.90;;;;;;6091853;23;20373;-78
2023/05/06 23:35:40;;;;;;;4.10;3.77;;;19.10;99.90;;;;;;6090840;23;20425;-79
2023/05/06 23:38:07;;;;;;;3.70;3.35;;;19.10;99.90;;;;;;6092096;23;20373;-79
2023/05/06 23:40:34;;;;;;;3.95;3.55;;;19.10;99.90;;;;;;6091666;23;20385;-78
2023/05/06 23:43:05;;;;;;;3.67;3.37;;;19.00;99.90;;;;;;6091679;23;20433;-79
2023/05/06 23:45:32;;;;;;;3.27;2.97;;;19.00;99.90;;;;;;6090363;23;20381;-79
2023/05/06 23:47:59;;;;;;;4.20;3.80;;;19.00;99.90;;;;;;6092293;23;20420;-79
2023/05/06 23:50:26;;;;;;;4.63;4.22;;;19.00;99.90;;;;;;6090179;23;20457;-78
2023/05/06 23:52:53;;;;;;;6.22;4.38;;;18.90;99.90;;;;;;6091793;23;20704;-79
2023/05/06 23:55:20;;;;;;;4.28;3.95;;;18.90;99.90;;;;;;6091441;23;20421;-79
2023/05/06 23:57:46;;;;;;;3.70;3.45;;;18.80;99.90;;;;;;6092248;23;20366;-79
